createdAt,value
2019-01-03T00:01:00.780Z,10.80
2019-01-03T00:03:47.037Z,11.65
2019-01-03T00:06:33.834Z,10.75
2019-01-03T00:09:10.424Z,10.82
2019-01-03T00:11:57.360Z,10.08
2019-01-03T00:14:43.244Z,10.18
2019-01-03T00:17:29.674Z,10.25
2019-01-03T00:20:16.399Z,10.00
2019-01-03T00:23:02.706Z,9.83
2019-01-03T00:31:54.453Z,9.43
2019-01-03T00:34:44.230Z,9.35
2019-01-03T00:37:31.958Z,8.95
2019-01-03T00:40:15.249Z,9.30
2019-01-03T00:43:05.672Z,9.60
2019-01-03T00:48:37.378Z,9.95
2019-01-03T00:51:23.458Z,9.35
2019-01-03T00:54:10.628Z,9.15
2019-01-03T00:56:52.061Z,8.73
2019-01-03T00:59:38.791Z,9.13
2019-01-03T01:05:13.887Z,8.40
2019-01-03T01:08:07.506Z,8.23
2019-01-03T01:11:07.427Z,8.73
2019-01-03T01:14:03.758Z,8.65
2019-01-03T01:16:42.964Z,8.70
2019-01-03T01:19:37.537Z,7.47
2019-01-03T01:22:23.770Z,8.65
2019-01-03T01:27:56.886Z,7.97
2019-01-03T01:30:53.409Z,8.40
2019-01-03T01:33:47.600Z,7.20
2019-01-03T01:36:33.906Z,7.92
2019-01-03T01:39:29.910Z,7.37
2019-01-03T01:42:32.349Z,6.87
2019-01-03T01:45:28.963Z,7.00
2019-01-03T01:48:24.761Z,7.58
2019-01-03T01:53:57.758Z,7.45
2019-01-03T01:59:44.504Z,7.20
2019-01-03T02:02:30.480Z,7.62
2019-01-03T02:05:16.459Z,7.60
2019-01-03T02:07:59.254Z,6.80
2019-01-03T02:10:46.275Z,6.62
2019-01-03T02:13:39.467Z,6.60
2019-01-03T02:16:35.253Z,6.78
2019-01-03T02:19:28.810Z,6.42
2019-01-03T02:22:14.020Z,6.37
2019-01-03T02:25:00.015Z,6.08
2019-01-03T02:27:56.464Z,6.30
2019-01-03T02:30:36.772Z,5.42
2019-01-03T02:36:24.735Z,5.75
2019-01-03T02:39:27.750Z,5.78
2019-01-03T02:44:59.897Z,5.70
2019-01-03T02:47:50.238Z,6.05
2019-01-03T02:50:48.801Z,5.72
2019-01-03T02:56:30.252Z,5.80
2019-01-03T02:59:16.028Z,6.20
2019-01-03T03:02:18.373Z,5.20
2019-01-03T03:04:59.845Z,6.35
2019-01-03T03:07:50.382Z,5.53
2019-01-03T03:10:43.607Z,5.25
2019-01-03T03:13:30.511Z,5.12
2019-01-03T03:16:20.562Z,5.10
2019-01-03T03:18:59.765Z,4.62
2019-01-03T03:24:43.252Z,4.50
2019-01-03T03:27:28.864Z,5.28
2019-01-03T03:30:15.045Z,4.70
2019-01-03T03:33:02.253Z,5.20
2019-01-03T03:35:49.438Z,4.97
2019-01-03T03:38:35.977Z,5.10
2019-01-03T03:41:35.373Z,4.50
2019-01-03T03:44:21.426Z,4.80
2019-01-03T03:47:08.255Z,4.87
2019-01-03T03:49:51.438Z,4.70
2019-01-03T03:52:37.436Z,4.17
2019-01-03T03:55:20.802Z,5.78
2019-01-03T03:58:24.460Z,4.85
2019-01-03T04:03:15.105Z,4.60
2019-01-03T04:06:01.476Z,5.03
2019-01-03T04:08:48.442Z,4.25
2019-01-03T04:11:46.390Z,4.17
2019-01-03T04:14:29.044Z,4.60
2019-01-03T04:17:15.546Z,4.65
2019-01-03T04:20:05.745Z,3.77
2019-01-03T04:25:52.253Z,4.03
2019-01-03T04:28:57.785Z,3.92
2019-01-03T04:34:32.046Z,4.42
2019-01-03T04:37:21.648Z,4.10
2019-01-03T04:40:07.807Z,4.53
2019-01-03T04:43:07.511Z,3.72
2019-01-03T04:45:57.341Z,4.72
2019-01-03T04:48:54.514Z,3.77
2019-01-03T04:51:59.787Z,4.28
2019-01-03T04:55:02.533Z,3.37
2019-01-03T04:58:00.958Z,4.03
2019-01-03T05:01:03.458Z,3.87
2019-01-03T05:04:08.862Z,3.60
2019-01-03T05:07:08.793Z,3.92
2019-01-03T05:09:55.444Z,5.73
2019-01-03T05:12:48.456Z,4.85
2019-01-03T05:15:29.799Z,4.53
2019-01-03T05:18:16.761Z,4.25
2019-01-03T05:21:16.251Z,3.62
2019-01-03T05:23:57.451Z,3.83
2019-01-03T05:26:42.496Z,3.70
2019-01-03T05:29:27.500Z,4.08
2019-01-03T05:32:13.785Z,4.00
2019-01-03T05:38:03.986Z,3.65
2019-01-03T05:40:50.643Z,3.60
2019-01-03T05:43:42.462Z,3.90
2019-01-03T05:46:28.021Z,3.98
2019-01-03T05:49:14.341Z,3.70
2019-01-03T05:51:59.442Z,3.58
2019-01-03T05:54:45.015Z,3.70
2019-01-03T05:57:30.967Z,3.50
2019-01-03T06:00:19.038Z,3.70
2019-01-03T06:03:12.038Z,3.72
2019-01-03T06:05:57.366Z,3.65
2019-01-03T06:08:43.599Z,3.62
2019-01-03T06:11:33.635Z,3.55
2019-01-03T06:14:19.376Z,3.30
2019-01-03T06:17:05.055Z,3.62
2019-01-03T06:19:51.609Z,3.30
2019-01-03T06:22:47.654Z,3.50
2019-01-03T06:25:33.366Z,3.85
2019-01-03T06:28:32.371Z,4.00
2019-01-03T06:31:18.866Z,3.47
2019-01-03T06:34:04.685Z,3.30
2019-01-03T06:39:39.011Z,3.62
2019-01-03T06:42:29.763Z,3.25
2019-01-03T06:48:05.406Z,3.60
2019-01-03T06:50:44.750Z,3.70
2019-01-03T06:56:21.795Z,3.22
2019-01-03T06:59:09.040Z,3.60
2019-01-03T07:01:54.872Z,4.28
2019-01-03T07:04:40.791Z,3.75
2019-01-03T07:10:13.439Z,3.52
2019-01-03T07:12:59.886Z,4.30
2019-01-03T07:15:46.596Z,4.20
2019-01-03T07:18:40.503Z,3.87
2019-01-03T07:21:27.297Z,3.52
2019-01-03T07:24:25.362Z,3.60
2019-01-03T07:27:09.787Z,3.25
2019-01-03T07:32:58.159Z,3.75
2019-01-03T07:35:44.469Z,3.52
2019-01-03T07:38:35.397Z,3.30
2019-01-03T07:41:31.500Z,3.70
2019-01-03T07:44:21.449Z,3.75
2019-01-03T07:47:07.538Z,3.10
2019-01-03T07:49:57.503Z,3.87
2019-01-03T07:52:43.610Z,3.22
2019-01-03T07:55:33.512Z,3.80
2019-01-03T07:58:32.508Z,4.20
2019-01-03T08:01:25.101Z,3.02
2019-01-03T08:04:27.869Z,3.40
2019-01-03T08:07:15.633Z,3.15
2019-01-03T08:09:56.502Z,3.37
2019-01-03T08:12:42.490Z,3.12
2019-01-03T08:15:29.192Z,3.25
2019-01-03T08:18:16.328Z,2.92
2019-01-03T08:21:03.433Z,3.50
2019-01-03T08:23:50.519Z,3.37
2019-01-03T08:26:43.692Z,2.85
2019-01-03T08:32:09.342Z,3.12
2019-01-03T08:35:00.244Z,2.85
2019-01-03T08:37:46.842Z,3.40
2019-01-03T08:40:37.011Z,3.17
2019-01-03T08:43:27.044Z,3.30
2019-01-03T08:49:00.701Z,2.90
2019-01-03T08:54:29.010Z,3.22
2019-01-03T08:57:17.077Z,3.00
2019-01-03T09:00:04.577Z,2.52
2019-01-03T09:02:44.246Z,3.45
2019-01-03T09:05:33.988Z,3.40
2019-01-03T09:08:20.804Z,3.30
2019-01-03T09:11:17.501Z,3.08
2019-01-03T09:14:04.245Z,3.05
2019-01-03T09:16:51.497Z,2.98
2019-01-03T09:19:37.976Z,2.90
2019-01-03T09:22:25.220Z,3.15
2019-01-03T09:25:21.242Z,3.20
2019-01-03T09:28:05.857Z,3.10
2019-01-03T09:31:03.410Z,3.10
2019-01-03T09:33:54.252Z,3.15
2019-01-03T09:36:41.404Z,2.87
2019-01-03T09:39:31.789Z,2.75
2019-01-03T09:45:01.259Z,3.08
2019-01-03T09:47:30.002Z,3.45
2019-01-03T09:49:58.749Z,3.17
2019-01-03T09:54:54.166Z,3.05
2019-01-03T09:57:22.038Z,2.70
2019-01-03T09:59:50.017Z,2.87
2019-01-03T10:02:17.388Z,2.77
2019-01-03T10:04:45.460Z,2.40
2019-01-03T10:07:13.437Z,2.72
2019-01-03T10:09:41.410Z,2.67
2019-01-03T10:12:08.931Z,3.20
2019-01-03T10:14:36.500Z,2.87
2019-01-03T10:17:04.048Z,2.65
2019-01-03T10:19:31.884Z,2.65
2019-01-03T10:21:59.250Z,2.87
2019-01-03T10:24:26.796Z,3.05
2019-01-03T10:26:54.801Z,2.75
2019-01-03T10:29:22.352Z,2.95
2019-01-03T10:31:50.917Z,2.80
2019-01-03T10:34:19.441Z,3.20
2019-01-03T10:36:47.257Z,3.20
2019-01-03T10:39:14.918Z,2.58
2019-01-03T10:41:42.914Z,2.47
2019-01-03T10:44:10.363Z,2.50
2019-01-03T10:46:38.581Z,2.62
2019-01-03T10:51:33.613Z,2.40
2019-01-03T10:54:00.847Z,2.50
2019-01-03T10:56:28.667Z,2.67
2019-01-03T10:58:56.533Z,2.60
2019-01-03T11:01:24.794Z,2.67
2019-01-03T11:03:53.400Z,2.62
2019-01-03T11:06:21.430Z,2.25
2019-01-03T11:08:49.097Z,2.70
2019-01-03T11:11:17.014Z,2.33
2019-01-03T11:13:45.448Z,2.60
2019-01-03T11:16:12.736Z,2.55
2019-01-03T11:21:07.792Z,2.17
2019-01-03T11:23:36.484Z,3.12
2019-01-03T11:26:03.752Z,2.58
2019-01-03T11:30:59.239Z,2.37
2019-01-03T11:33:26.492Z,2.50
2019-01-03T11:35:54.213Z,2.77
2019-01-03T11:38:21.755Z,2.60
2019-01-03T11:43:17.507Z,2.50
2019-01-03T11:45:45.415Z,2.00
2019-01-03T11:48:13.374Z,2.20
2019-01-03T11:50:41.344Z,2.40
2019-01-03T11:53:09.067Z,2.40
2019-01-03T11:55:37.239Z,2.55
2019-01-03T11:58:05.741Z,2.75
2019-01-03T12:00:33.006Z,2.40
2019-01-03T12:03:01.049Z,2.70
2019-01-03T12:05:28.602Z,2.65
2019-01-03T12:07:57.502Z,2.30
2019-01-03T12:10:25.669Z,2.92
2019-01-03T12:15:20.447Z,2.25
2019-01-03T12:17:49.026Z,2.17
2019-01-03T12:20:17.370Z,2.12
2019-01-03T12:22:44.599Z,2.40
2019-01-03T12:25:11.872Z,2.30
2019-01-03T12:27:40.434Z,2.58
2019-01-03T12:30:09.438Z,1.92
2019-01-03T12:32:36.711Z,2.30
2019-01-03T12:42:26.592Z,2.87
2019-01-03T12:44:53.889Z,2.42
2019-01-03T12:47:21.813Z,2.40
2019-01-03T12:49:50.841Z,2.45
2019-01-03T12:52:19.361Z,2.67
2019-01-03T12:54:47.238Z,2.40
2019-01-03T12:57:15.013Z,2.10
2019-01-03T12:59:42.983Z,2.50
2019-01-03T13:02:10.402Z,2.83
2019-01-03T13:04:38.507Z,1.70
2019-01-03T13:07:06.734Z,2.22
2019-01-03T13:12:01.580Z,3.05
2019-01-03T13:14:30.008Z,3.08
2019-01-03T13:16:57.389Z,3.27
2019-01-03T13:19:25.501Z,3.35
2019-01-03T13:21:53.379Z,3.52
2019-01-03T13:24:22.235Z,3.30
2019-01-03T13:26:49.851Z,3.55
2019-01-03T13:29:17.783Z,3.45
2019-01-03T13:31:46.059Z,3.45
2019-01-03T13:34:14.239Z,3.45
2019-01-03T13:36:43.015Z,3.40
2019-01-03T13:39:11.125Z,2.90
2019-01-03T13:41:39.053Z,2.87
2019-01-03T13:44:06.381Z,2.92
2019-01-03T13:46:33.782Z,2.87
2019-01-03T13:49:01.153Z,2.87
2019-01-03T13:51:28.418Z,2.37
2019-01-03T13:53:55.693Z,3.12
2019-01-03T13:58:51.451Z,2.77
2019-01-03T14:01:18.982Z,3.20
2019-01-03T14:03:46.375Z,3.25
2019-01-03T14:06:13.710Z,3.30
2019-01-03T14:11:09.040Z,3.62
2019-01-03T14:13:36.603Z,3.52
2019-01-03T14:16:04.461Z,7.92
2019-01-03T14:18:32.408Z,7.10
2019-01-03T14:21:00.108Z,7.28
2019-01-03T14:23:28.602Z,7.65
2019-01-03T14:25:56.344Z,7.25
2019-01-03T14:28:23.787Z,7.42
2019-01-03T14:30:51.102Z,7.45
2019-01-03T14:33:18.452Z,7.83
2019-01-03T14:38:14.806Z,7.58
2019-01-03T14:40:42.438Z,7.90
2019-01-03T14:43:10.783Z,7.78
2019-01-03T14:45:38.763Z,8.37
2019-01-03T14:53:01.777Z,9.58
2019-01-03T14:55:29.024Z,9.63
2019-01-03T14:57:56.448Z,8.15
2019-01-03T15:00:24.821Z,9.13
2019-01-03T15:02:52.893Z,8.03
2019-01-03T15:05:20.965Z,7.78
2019-01-03T15:07:48.489Z,7.85
2019-01-03T15:10:16.026Z,8.23
2019-01-03T15:12:46.053Z,7.92
2019-01-03T15:15:15.708Z,7.65
2019-01-03T15:20:11.367Z,7.55
2019-01-03T15:22:39.458Z,7.97
2019-01-03T15:25:06.793Z,8.63
2019-01-03T15:27:34.496Z,6.67
2019-01-03T15:30:02.491Z,7.72
2019-01-03T15:32:30.560Z,7.75
2019-01-03T15:34:58.091Z,8.43
2019-01-03T15:37:26.435Z,8.55
2019-01-03T15:39:55.478Z,8.60
2019-01-03T15:42:23.433Z,9.90
2019-01-03T15:44:51.451Z,8.65
2019-01-03T15:47:19.500Z,8.55
2019-01-03T15:49:46.803Z,8.88
2019-01-03T15:52:14.106Z,8.43
2019-01-03T15:54:41.765Z,8.15
2019-01-03T15:57:09.693Z,7.97
2019-01-03T16:02:05.046Z,7.55
2019-01-03T16:04:32.384Z,8.80
2019-01-03T16:06:59.605Z,7.35
2019-01-03T16:09:27.931Z,8.58
2019-01-03T16:11:55.244Z,7.50
2019-01-03T16:14:23.602Z,7.72
2019-01-03T16:16:50.879Z,8.23
2019-01-03T16:19:18.602Z,8.38
2019-01-03T16:21:46.347Z,7.35
2019-01-03T16:24:14.208Z,8.33
2019-01-03T16:26:42.083Z,7.40
2019-01-03T16:29:09.921Z,8.93
2019-01-03T16:31:37.609Z,8.15
2019-01-03T16:34:06.274Z,8.30
2019-01-03T16:36:34.246Z,7.83
2019-01-03T16:39:03.007Z,7.62
2019-01-03T16:41:31.423Z,7.75
2019-01-03T16:43:59.460Z,7.50
2019-01-03T16:46:27.438Z,7.05
2019-01-03T16:48:55.242Z,7.35
2019-01-03T16:51:22.793Z,8.40
2019-01-03T16:53:50.534Z,8.28
2019-01-03T16:56:18.438Z,8.40
2019-01-03T16:58:45.836Z,8.45
2019-01-03T17:01:13.247Z,9.20
2019-01-03T17:03:41.426Z,8.58
2019-01-03T17:06:08.872Z,8.93
2019-01-03T17:08:36.996Z,8.45
2019-01-03T17:11:05.094Z,7.87
2019-01-03T17:17:00.931Z,8.40
2019-01-03T17:24:33.772Z,8.20
2019-01-03T17:34:31.797Z,8.33
2019-01-03T17:44:25.370Z,8.13
2019-01-03T17:46:54.374Z,9.00
2019-01-03T17:49:22.780Z,8.55
2019-01-03T17:54:21.126Z,8.28
2019-01-03T17:59:17.342Z,8.08
2019-01-03T18:01:45.877Z,9.23
2019-01-03T18:06:43.329Z,9.65
2019-01-03T18:09:11.844Z,8.20
2019-01-03T18:19:04.733Z,6.87
2019-01-03T18:24:01.615Z,7.70
2019-01-03T18:26:30.763Z,7.87
2019-01-03T18:29:18.496Z,8.00
2019-01-03T18:34:13.284Z,8.48
2019-01-03T18:38:18.249Z,7.90
2019-01-03T18:40:45.491Z,8.23
2019-01-03T18:43:14.481Z,8.13
2019-01-03T18:45:42.041Z,8.40
2019-01-03T18:48:10.240Z,7.28
2019-01-03T18:50:37.965Z,7.40
2019-01-03T18:53:06.458Z,7.97
2019-01-03T18:55:34.007Z,8.28
2019-01-03T18:58:01.770Z,7.47
2019-01-03T19:00:30.242Z,8.23
2019-01-03T19:02:58.242Z,9.30
2019-01-03T19:05:25.798Z,7.40
2019-01-03T19:07:53.490Z,9.00
2019-01-03T19:10:20.772Z,8.13
2019-01-03T19:12:48.324Z,8.10
2019-01-03T19:15:15.922Z,8.48
2019-01-03T19:17:43.600Z,7.80
2019-01-03T19:20:10.866Z,7.25
2019-01-03T19:22:39.238Z,7.47
2019-01-03T19:25:10.852Z,7.95
2019-01-03T19:27:39.456Z,7.92
2019-01-03T19:30:09.049Z,7.05
2019-01-03T19:32:36.406Z,7.83
2019-01-03T19:35:05.026Z,7.62
2019-01-03T19:37:32.981Z,7.25
2019-01-03T19:40:01.031Z,8.23
2019-01-03T19:42:28.429Z,8.15
2019-01-03T19:44:55.810Z,7.87
2019-01-03T19:47:23.363Z,7.60
2019-01-03T19:49:51.402Z,7.58
2019-01-03T19:52:19.449Z,6.92
2019-01-03T19:54:48.367Z,7.67
2019-01-03T19:57:15.605Z,7.17
2019-01-03T20:02:09.970Z,8.35
2019-01-03T20:04:37.396Z,7.10
2019-01-03T20:07:04.846Z,7.83
2019-01-03T20:09:33.407Z,7.35
2019-01-03T20:12:01.950Z,7.43
2019-01-03T20:14:29.597Z,6.67
2019-01-03T20:19:24.938Z,7.37
2019-01-03T20:21:52.236Z,7.10
2019-01-03T20:24:19.710Z,7.60
2019-01-03T20:29:14.351Z,7.30
2019-01-03T20:31:42.512Z,6.87
2019-01-03T20:34:09.976Z,7.62
2019-01-03T20:36:38.232Z,7.50
2019-01-03T20:39:06.030Z,6.90
2019-01-03T20:41:33.376Z,6.67
2019-01-03T20:44:00.610Z,6.33
2019-01-03T20:46:28.327Z,6.53
2019-01-03T20:48:56.423Z,7.15
2019-01-03T20:51:24.423Z,7.17
2019-01-03T20:53:51.710Z,5.92
2019-01-03T20:56:18.979Z,6.80
2019-01-03T20:58:46.316Z,6.05
2019-01-03T21:01:13.590Z,6.97
2019-01-03T21:03:41.425Z,6.60
2019-01-03T21:06:08.691Z,6.95
2019-01-03T21:11:02.867Z,6.85
2019-01-03T21:13:30.734Z,6.65
2019-01-03T21:18:26.589Z,6.65
2019-01-03T21:20:54.844Z,6.25
2019-01-03T21:23:22.229Z,5.60
2019-01-03T21:25:49.478Z,6.10
2019-01-03T21:28:16.756Z,6.17
2019-01-03T21:30:44.708Z,5.53
2019-01-03T21:35:39.491Z,5.25
2019-01-03T21:38:06.961Z,5.45
2019-01-03T21:40:34.244Z,6.10
2019-01-03T21:43:02.234Z,7.40
2019-01-03T21:45:29.734Z,7.12
2019-01-03T21:50:24.831Z,7.10
2019-01-03T21:52:52.844Z,7.05
2019-01-03T21:55:20.447Z,7.80
2019-01-03T21:57:48.507Z,7.00
2019-01-03T22:00:16.961Z,7.33
2019-01-03T22:02:44.242Z,6.67
2019-01-03T22:05:11.793Z,6.35
2019-01-03T22:07:39.763Z,6.62
2019-01-03T22:17:31.826Z,5.28
2019-01-03T22:19:59.427Z,5.72
2019-01-03T22:22:26.770Z,5.72
2019-01-03T22:24:53.970Z,5.80
2019-01-03T22:27:21.466Z,6.00
2019-01-03T22:32:00.722Z,5.97
2019-01-03T22:36:54.878Z,5.95
2019-01-03T22:39:22.239Z,6.17
2019-01-03T22:41:49.729Z,6.55
2019-01-03T22:46:44.485Z,5.78
2019-01-03T22:49:11.793Z,7.05
2019-01-03T22:51:39.845Z,6.17
2019-01-03T22:54:08.238Z,6.17
2019-01-03T22:56:36.233Z,5.75
2019-01-03T22:59:04.399Z,5.10
2019-01-03T23:01:31.715Z,5.22
2019-01-03T23:03:59.435Z,5.50
2019-01-03T23:07:27.235Z,6.25
2019-01-03T23:09:55.145Z,6.47
2019-01-03T23:12:22.985Z,6.42
2019-01-03T23:14:51.353Z,6.80
2019-01-03T23:17:19.397Z,6.37
2019-01-03T23:19:47.335Z,6.70
2019-01-03T23:22:15.240Z,6.72
2019-01-03T23:24:43.241Z,5.67
2019-01-03T23:27:10.755Z,4.67
2019-01-03T23:32:05.935Z,5.30
2019-01-03T23:34:34.239Z,5.20
2019-01-03T23:37:02.463Z,5.40
2019-01-03T23:42:13.875Z,6.00
2019-01-03T23:45:12.034Z,6.25
2019-01-03T23:47:40.501Z,7.03
2019-01-03T23:52:39.523Z,5.70
2019-01-03T23:55:07.612Z,5.30
2019-01-03T23:57:36.438Z,5.05
